sensor_id;sensor_type;location;lat;lon;timestamp;temperature;humidity
66144;SHT31;52947;50.842;6.084;2022-11-06T00:01:53;8.58;79.53
66144;SHT31;52947;50.842;6.084;2022-11-06T00:04:21;8.56;78.77
66144;SHT31;52947;50.842;6.084;2022-11-06T00:06:49;8.59;78.92
66144;SHT31;52947;50.842;6.084;2022-11-06T00:09:17;8.69;79.04
66144;SHT31;52947;50.842;6.084;2022-11-06T00:11:46;8.64;78.78
66144;SHT31;52947;50.842;6.084;2022-11-06T00:14:16;8.62;78.57
66144;SHT31;52947;50.842;6.084;2022-11-06T00:16:45;8.61;78.92
66144;SHT31;52947;50.842;6.084;2022-11-06T00:19:13;8.62;78.90
66144;SHT31;52947;50.842;6.084;2022-11-06T00:21:42;8.64;78.94
66144;SHT31;52947;50.842;6.084;2022-11-06T00:24:11;8.72;78.09
66144;SHT31;52947;50.842;6.084;2022-11-06T00:26:40;8.75;77.62
66144;SHT31;52947;50.842;6.084;2022-11-06T00:29:12;8.82;77.35
66144;SHT31;52947;50.842;6.084;2022-11-06T00:31:41;8.90;77.97
66144;SHT31;52947;50.842;6.084;2022-11-06T00:34:09;8.86;77.38
66144;SHT31;52947;50.842;6.084;2022-11-06T00:36:37;8.92;76.88
66144;SHT31;52947;50.842;6.084;2022-11-06T00:39:05;8.96;78.17
66144;SHT31;52947;50.842;6.084;2022-11-06T00:41:33;8.88;77.51
66144;SHT31;52947;50.842;6.084;2022-11-06T00:44:01;8.88;77.59
66144;SHT31;52947;50.842;6.084;2022-11-06T00:46:30;8.86;77.53
66144;SHT31;52947;50.842;6.084;2022-11-06T00:48:59;8.82;77.80
66144;SHT31;52947;50.842;6.084;2022-11-06T00:51:28;8.85;77.97
66144;SHT31;52947;50.842;6.084;2022-11-06T00:53:57;8.85;77.97
66144;SHT31;52947;50.842;6.084;2022-11-06T00:56:25;8.83;78.32
66144;SHT31;52947;50.842;6.084;2022-11-06T00:58:53;8.90;78.23
66144;SHT31;52947;50.842;6.084;2022-11-06T01:01:23;8.88;78.34
66144;SHT31;52947;50.842;6.084;2022-11-06T01:03:53;8.95;78.49
66144;SHT31;52947;50.842;6.084;2022-11-06T01:06:24;8.89;78.28
66144;SHT31;52947;50.842;6.084;2022-11-06T01:08:52;8.90;79.42
66144;SHT31;52947;50.842;6.084;2022-11-06T01:11:22;8.89;78.92
66144;SHT31;52947;50.842;6.084;2022-11-06T01:13:52;8.83;78.91
66144;SHT31;52947;50.842;6.084;2022-11-06T01:16:21;8.89;79.10
66144;SHT31;52947;50.842;6.084;2022-11-06T01:18:50;8.90;79.30
66144;SHT31;52947;50.842;6.084;2022-11-06T01:21:22;8.89;79.75
66144;SHT31;52947;50.842;6.084;2022-11-06T01:23:51;8.89;79.42
66144;SHT31;52947;50.842;6.084;2022-11-06T01:26:20;8.89;79.63
66144;SHT31;52947;50.842;6.084;2022-11-06T01:29:05;8.86;79.59
66144;SHT31;52947;50.842;6.084;2022-11-06T01:31:34;8.92;79.49
66144;SHT31;52947;50.842;6.084;2022-11-06T01:34:03;8.89;79.70
66144;SHT31;52947;50.842;6.084;2022-11-06T01:36:32;8.92;79.78
66144;SHT31;52947;50.842;6.084;2022-11-06T01:39:03;8.92;79.82
66144;SHT31;52947;50.842;6.084;2022-11-06T01:41:35;8.93;80.25
66144;SHT31;52947;50.842;6.084;2022-11-06T01:44:04;8.92;80.08
66144;SHT31;52947;50.842;6.084;2022-11-06T01:46:35;8.90;80.18
66144;SHT31;52947;50.842;6.084;2022-11-06T01:49:07;8.88;80.58
66144;SHT31;52947;50.842;6.084;2022-11-06T01:51:41;8.88;80.55
66144;SHT31;52947;50.842;6.084;2022-11-06T01:54:10;8.89;80.31
66144;SHT31;52947;50.842;6.084;2022-11-06T01:56:38;8.88;80.76
66144;SHT31;52947;50.842;6.084;2022-11-06T01:59:08;8.85;80.87
66144;SHT31;52947;50.842;6.084;2022-11-06T02:01:36;8.85;80.67
66144;SHT31;52947;50.842;6.084;2022-11-06T02:04:08;8.85;81.02
66144;SHT31;52947;50.842;6.084;2022-11-06T02:06:38;8.83;80.94
66144;SHT31;52947;50.842;6.084;2022-11-06T02:09:06;8.83;81.03
66144;SHT31;52947;50.842;6.084;2022-11-06T02:11:38;8.88;81.13
66144;SHT31;52947;50.842;6.084;2022-11-06T02:14:10;8.85;81.20
66144;SHT31;52947;50.842;6.084;2022-11-06T02:16:45;8.83;81.21
66144;SHT31;52947;50.842;6.084;2022-11-06T02:19:32;8.85;81.21
66144;SHT31;52947;50.842;6.084;2022-11-06T02:22:42;8.89;81.48
66144;SHT31;52947;50.842;6.084;2022-11-06T02:25:15;8.83;81.52
66144;SHT31;52947;50.842;6.084;2022-11-06T02:27:48;8.83;81.42
66144;SHT31;52947;50.842;6.084;2022-11-06T02:30:17;8.80;81.81
66144;SHT31;52947;50.842;6.084;2022-11-06T02:32:49;8.89;81.96
66144;SHT31;52947;50.842;6.084;2022-11-06T02:35:22;8.83;81.86
66144;SHT31;52947;50.842;6.084;2022-11-06T02:37:56;8.82;81.39
66144;SHT31;52947;50.842;6.084;2022-11-06T02:40:29;8.79;81.64
66144;SHT31;52947;50.842;6.084;2022-11-06T02:43:03;8.76;81.66
66144;SHT31;52947;50.842;6.084;2022-11-06T02:45:37;8.76;81.90
66144;SHT31;52947;50.842;6.084;2022-11-06T02:48:08;8.72;81.83
66144;SHT31;52947;50.842;6.084;2022-11-06T02:50:39;8.79;81.86
66144;SHT31;52947;50.842;6.084;2022-11-06T02:53:10;8.85;81.83
66144;SHT31;52947;50.842;6.084;2022-11-06T02:55:42;8.85;81.97
66144;SHT31;52947;50.842;6.084;2022-11-06T02:58:15;8.80;82.27
66144;SHT31;52947;50.842;6.084;2022-11-06T03:00:47;8.79;81.94
66144;SHT31;52947;50.842;6.084;2022-11-06T03:03:21;8.80;82.03
66144;SHT31;52947;50.842;6.084;2022-11-06T03:05:52;8.78;82.11
66144;SHT31;52947;50.842;6.084;2022-11-06T03:08:25;8.78;82.28
66144;SHT31;52947;50.842;6.084;2022-11-06T03:11:03;8.78;82.18
66144;SHT31;52947;50.842;6.084;2022-11-06T03:13:43;8.78;82.02
66144;SHT31;52947;50.842;6.084;2022-11-06T03:16:25;8.89;82.16
66144;SHT31;52947;50.842;6.084;2022-11-06T03:19:01;8.71;82.18
66144;SHT31;52947;50.842;6.084;2022-11-06T03:21:35;8.66;82.29
66144;SHT31;52947;50.842;6.084;2022-11-06T03:24:11;8.78;82.23
66144;SHT31;52947;50.842;6.084;2022-11-06T03:26:43;8.83;82.12
66144;SHT31;52947;50.842;6.084;2022-11-06T03:29:16;8.82;82.63
66144;SHT31;52947;50.842;6.084;2022-11-06T03:31:49;8.83;82.01
66144;SHT31;52947;50.842;6.084;2022-11-06T03:34:25;8.78;82.23
66144;SHT31;52947;50.842;6.084;2022-11-06T03:36:57;8.86;82.30
66144;SHT31;52947;50.842;6.084;2022-11-06T03:39:29;8.85;82.16
66144;SHT31;52947;50.842;6.084;2022-11-06T03:42:03;8.85;82.12
66144;SHT31;52947;50.842;6.084;2022-11-06T03:44:37;8.86;82.17
66144;SHT31;52947;50.842;6.084;2022-11-06T03:47:11;8.85;81.97
66144;SHT31;52947;50.842;6.084;2022-11-06T03:49:42;8.89;82.24
66144;SHT31;52947;50.842;6.084;2022-11-06T03:52:15;8.86;82.09
66144;SHT31;52947;50.842;6.084;2022-11-06T03:54:47;8.86;82.38
66144;SHT31;52947;50.842;6.084;2022-11-06T03:57:20;8.90;82.56
66144;SHT31;52947;50.842;6.084;2022-11-06T03:59:54;8.93;81.99
66144;SHT31;52947;50.842;6.084;2022-11-06T04:02:24;8.92;82.08
66144;SHT31;52947;50.842;6.084;2022-11-06T04:04:57;8.88;82.04
66144;SHT31;52947;50.842;6.084;2022-11-06T04:07:29;8.90;82.24
66144;SHT31;52947;50.842;6.084;2022-11-06T04:10:00;8.92;82.10
66144;SHT31;52947;50.842;6.084;2022-11-06T04:12:58;8.96;81.77
66144;SHT31;52947;50.842;6.084;2022-11-06T04:15:49;9.03;82.08
66144;SHT31;52947;50.842;6.084;2022-11-06T04:18:19;9.02;81.77
66144;SHT31;52947;50.842;6.084;2022-11-06T04:20:49;8.97;81.84
66144;SHT31;52947;50.842;6.084;2022-11-06T04:23:43;9.02;81.72
66144;SHT31;52947;50.842;6.084;2022-11-06T04:26:42;9.06;81.79
66144;SHT31;52947;50.842;6.084;2022-11-06T04:29:31;9.13;81.91
66144;SHT31;52947;50.842;6.084;2022-11-06T04:32:10;9.09;81.51
66144;SHT31;52947;50.842;6.084;2022-11-06T04:34:42;9.15;81.41
66144;SHT31;52947;50.842;6.084;2022-11-06T04:37:16;9.12;81.57
66144;SHT31;52947;50.842;6.084;2022-11-06T04:39:53;9.20;81.39
66144;SHT31;52947;50.842;6.084;2022-11-06T04:42:27;9.24;80.99
66144;SHT31;52947;50.842;6.084;2022-11-06T04:45:02;9.22;81.21
66144;SHT31;52947;50.842;6.084;2022-11-06T04:47:33;9.20;80.98
66144;SHT31;52947;50.842;6.084;2022-11-06T04:50:05;9.27;81.11
66144;SHT31;52947;50.842;6.084;2022-11-06T04:52:36;9.26;80.92
66144;SHT31;52947;50.842;6.084;2022-11-06T04:55:05;9.30;80.85
66144;SHT31;52947;50.842;6.084;2022-11-06T04:57:33;9.24;80.89
66144;SHT31;52947;50.842;6.084;2022-11-06T05:00:01;9.26;80.93
66144;SHT31;52947;50.842;6.084;2022-11-06T05:02:29;9.26;80.97
66144;SHT31;52947;50.842;6.084;2022-11-06T05:04:58;9.22;81.53
66144;SHT31;52947;50.842;6.084;2022-11-06T05:07:26;9.27;81.11
66144;SHT31;52947;50.842;6.084;2022-11-06T05:09:54;9.23;81.25
66144;SHT31;52947;50.842;6.084;2022-11-06T05:12:22;9.19;81.00
66144;SHT31;52947;50.842;6.084;2022-11-06T05:14:49;9.22;81.23
66144;SHT31;52947;50.842;6.084;2022-11-06T05:17:17;9.20;81.00
66144;SHT31;52947;50.842;6.084;2022-11-06T05:19:45;9.22;81.23
66144;SHT31;52947;50.842;6.084;2022-11-06T05:22:14;9.16;81.82
66144;SHT31;52947;50.842;6.084;2022-11-06T05:24:59;9.09;81.40
66144;SHT31;52947;50.842;6.084;2022-11-06T05:27:27;9.22;81.24
66144;SHT31;52947;50.842;6.084;2022-11-06T05:29:55;9.24;81.02
66144;SHT31;52947;50.842;6.084;2022-11-06T05:32:22;9.27;81.27
66144;SHT31;52947;50.842;6.084;2022-11-06T05:34:50;9.26;81.04
66144;SHT31;52947;50.842;6.084;2022-11-06T05:37:19;9.27;81.29
66144;SHT31;52947;50.842;6.084;2022-11-06T05:39:47;9.33;80.55
66144;SHT31;52947;50.842;6.084;2022-11-06T05:42:15;9.29;80.62
66144;SHT31;52947;50.842;6.084;2022-11-06T05:44:42;9.17;80.74
66144;SHT31;52947;50.842;6.084;2022-11-06T05:47:10;9.15;81.00
66144;SHT31;52947;50.842;6.084;2022-11-06T05:49:38;9.16;81.50
66144;SHT31;52947;50.842;6.084;2022-11-06T05:52:06;9.13;81.34
66144;SHT31;52947;50.842;6.084;2022-11-06T05:54:35;9.23;81.23
66144;SHT31;52947;50.842;6.084;2022-11-06T05:57:03;9.29;81.03
66144;SHT31;52947;50.842;6.084;2022-11-06T05:59:31;9.19;80.98
66144;SHT31;52947;50.842;6.084;2022-11-06T06:01:59;9.12;81.14
66144;SHT31;52947;50.842;6.084;2022-11-06T06:04:27;9.22;81.43
66144;SHT31;52947;50.842;6.084;2022-11-06T06:06:55;9.22;80.72
66144;SHT31;52947;50.842;6.084;2022-11-06T06:09:23;9.22;80.93
66144;SHT31;52947;50.842;6.084;2022-11-06T06:11:52;9.17;81.79
66144;SHT31;52947;50.842;6.084;2022-11-06T06:14:20;9.20;80.63
66144;SHT31;52947;50.842;6.084;2022-11-06T06:16:48;9.24;82.43
66144;SHT31;52947;50.842;6.084;2022-11-06T06:19:16;9.27;80.33
66144;SHT31;52947;50.842;6.084;2022-11-06T06:21:44;9.27;80.60
66144;SHT31;52947;50.842;6.084;2022-11-06T06:24:11;9.38;80.35
66144;SHT31;52947;50.842;6.084;2022-11-06T06:26:39;9.41;80.01
66144;SHT31;52947;50.842;6.084;2022-11-06T06:29:08;9.51;80.05
66144;SHT31;52947;50.842;6.084;2022-11-06T06:31:36;9.51;79.71
66144;SHT31;52947;50.842;6.084;2022-11-06T06:34:04;9.54;79.76
66144;SHT31;52947;50.842;6.084;2022-11-06T06:36:32;9.55;79.65
66144;SHT31;52947;50.842;6.084;2022-11-06T06:38:59;9.61;80.45
66144;SHT31;52947;50.842;6.084;2022-11-06T06:41:27;9.58;79.67
66144;SHT31;52947;50.842;6.084;2022-11-06T06:43:55;9.60;79.49
66144;SHT31;52947;50.842;6.084;2022-11-06T06:46:24;9.46;79.45
66144;SHT31;52947;50.842;6.084;2022-11-06T06:48:52;9.51;79.45
66144;SHT31;52947;50.842;6.084;2022-11-06T06:51:20;9.47;79.20
66144;SHT31;52947;50.842;6.084;2022-11-06T06:53:50;9.55;79.44
66144;SHT31;52947;50.842;6.084;2022-11-06T06:56:17;9.62;79.11
66144;SHT31;52947;50.842;6.084;2022-11-06T06:58:45;9.68;78.97
66144;SHT31;52947;50.842;6.084;2022-11-06T07:01:13;9.67;78.26
66144;SHT31;52947;50.842;6.084;2022-11-06T07:03:43;9.74;78.33
66144;SHT31;52947;50.842;6.084;2022-11-06T07:06:11;9.84;77.65
66144;SHT31;52947;50.842;6.084;2022-11-06T07:08:39;9.79;78.15
66144;SHT31;52947;50.842;6.084;2022-11-06T07:11:09;9.95;77.74
66144;SHT31;52947;50.842;6.084;2022-11-06T07:13:37;10.01;77.69
66144;SHT31;52947;50.842;6.084;2022-11-06T07:16:06;10.11;77.02
66144;SHT31;52947;50.842;6.084;2022-11-06T07:18:35;10.20;77.15
66144;SHT31;52947;50.842;6.084;2022-11-06T07:21:06;10.25;76.72
66144;SHT31;52947;50.842;6.084;2022-11-06T07:23:35;10.64;75.38
66144;SHT31;52947;50.842;6.084;2022-11-06T07:26:04;11.35;73.18
66144;SHT31;52947;50.842;6.084;2022-11-06T07:28:32;11.61;72.37
66144;SHT31;52947;50.842;6.084;2022-11-06T07:31:01;11.03;73.28
66144;SHT31;52947;50.842;6.084;2022-11-06T07:33:30;10.73;74.16
66144;SHT31;52947;50.842;6.084;2022-11-06T07:36:01;10.71;74.72
66144;SHT31;52947;50.842;6.084;2022-11-06T07:38:31;11.15;73.81
66144;SHT31;52947;50.842;6.084;2022-11-06T07:41:01;12.19;70.84
66144;SHT31;52947;50.842;6.084;2022-11-06T07:43:30;12.84;69.33
66144;SHT31;52947;50.842;6.084;2022-11-06T07:45:58;13.47;67.43
66144;SHT31;52947;50.842;6.084;2022-11-06T07:48:27;13.95;65.97
66144;SHT31;52947;50.842;6.084;2022-11-06T07:50:55;13.23;67.34
66144;SHT31;52947;50.842;6.084;2022-11-06T07:53:23;13.47;67.19
66144;SHT31;52947;50.842;6.084;2022-11-06T07:55:54;12.84;68.39
66144;SHT31;52947;50.842;6.084;2022-11-06T07:58:22;12.38;69.48
66144;SHT31;52947;50.842;6.084;2022-11-06T08:00:51;11.79;70.35
66144;SHT31;52947;50.842;6.084;2022-11-06T08:03:20;11.90;70.14
66144;SHT31;52947;50.842;6.084;2022-11-06T08:05:48;11.68;70.74
66144;SHT31;52947;50.842;6.084;2022-11-06T08:08:16;11.66;71.19
66144;SHT31;52947;50.842;6.084;2022-11-06T08:10:44;12.03;69.84
66144;SHT31;52947;50.842;6.084;2022-11-06T08:13:16;11.69;71.78
66144;SHT31;52947;50.842;6.084;2022-11-06T08:15:44;11.69;71.50
66144;SHT31;52947;50.842;6.084;2022-11-06T08:18:12;11.57;70.89
66144;SHT31;52947;50.842;6.084;2022-11-06T08:20:41;11.27;71.49
66144;SHT31;52947;50.842;6.084;2022-11-06T08:23:10;11.24;72.29
66144;SHT31;52947;50.842;6.084;2022-11-06T08:25:38;11.34;72.17
66144;SHT31;52947;50.842;6.084;2022-11-06T08:28:06;11.36;72.02
66144;SHT31;52947;50.842;6.084;2022-11-06T08:30:35;11.49;72.21
66144;SHT31;52947;50.842;6.084;2022-11-06T08:33:05;11.35;72.08
66144;SHT31;52947;50.842;6.084;2022-11-06T08:35:33;11.31;71.70
66144;SHT31;52947;50.842;6.084;2022-11-06T08:38:01;11.97;71.15
66144;SHT31;52947;50.842;6.084;2022-11-06T08:40:29;12.23;68.77
66144;SHT31;52947;50.842;6.084;2022-11-06T08:42:58;13.15;68.81
66144;SHT31;52947;50.842;6.084;2022-11-06T08:45:27;14.64;64.45
66144;SHT31;52947;50.842;6.084;2022-11-06T08:47:59;14.10;65.57
66144;SHT31;52947;50.842;6.084;2022-11-06T08:50:28;13.78;65.89
66144;SHT31;52947;50.842;6.084;2022-11-06T08:52:56;13.18;66.62
66144;SHT31;52947;50.842;6.084;2022-11-06T08:55:23;12.80;67.57
66144;SHT31;52947;50.842;6.084;2022-11-06T08:57:53;12.53;68.73
66144;SHT31;52947;50.842;6.084;2022-11-06T09:00:20;12.36;68.88
66144;SHT31;52947;50.842;6.084;2022-11-06T09:02:48;12.47;69.99
66144;SHT31;52947;50.842;6.084;2022-11-06T09:05:18;12.44;69.01
66144;SHT31;52947;50.842;6.084;2022-11-06T09:07:45;12.68;68.35
66144;SHT31;52947;50.842;6.084;2022-11-06T09:10:13;12.88;68.69
66144;SHT31;52947;50.842;6.084;2022-11-06T09:12:41;13.32;66.76
66144;SHT31;52947;50.842;6.084;2022-11-06T09:15:09;13.64;66.30
66144;SHT31;52947;50.842;6.084;2022-11-06T09:17:41;14.03;65.58
66144;SHT31;52947;50.842;6.084;2022-11-06T09:20:10;15.88;60.90
66144;SHT31;52947;50.842;6.084;2022-11-06T09:22:39;15.72;61.93
66144;SHT31;52947;50.842;6.084;2022-11-06T09:25:08;16.20;60.53
66144;SHT31;52947;50.842;6.084;2022-11-06T09:27:42;16.15;59.68
66144;SHT31;52947;50.842;6.084;2022-11-06T09:30:12;15.91;60.31
66144;SHT31;52947;50.842;6.084;2022-11-06T09:32:44;15.47;61.35
66144;SHT31;52947;50.842;6.084;2022-11-06T09:35:12;15.28;61.60
66144;SHT31;52947;50.842;6.084;2022-11-06T09:37:42;15.19;62.02
66144;SHT31;52947;50.842;6.084;2022-11-06T09:40:17;14.46;62.95
66144;SHT31;52947;50.842;6.084;2022-11-06T09:42:54;14.28;63.78
66144;SHT31;52947;50.842;6.084;2022-11-06T09:45:27;13.90;64.42
66144;SHT31;52947;50.842;6.084;2022-11-06T09:48:02;13.57;65.06
66144;SHT31;52947;50.842;6.084;2022-11-06T09:50:36;13.47;65.79
66144;SHT31;52947;50.842;6.084;2022-11-06T09:53:11;13.35;65.90
66144;SHT31;52947;50.842;6.084;2022-11-06T09:55:42;13.22;65.74
66144;SHT31;52947;50.842;6.084;2022-11-06T09:58:14;13.29;65.98
66144;SHT31;52947;50.842;6.084;2022-11-06T10:00:43;13.45;65.21
66144;SHT31;52947;50.842;6.084;2022-11-06T10:03:15;13.43;65.13
66144;SHT31;52947;50.842;6.084;2022-11-06T10:05:45;13.08;65.37
66144;SHT31;52947;50.842;6.084;2022-11-06T10:08:19;13.08;66.09
66144;SHT31;52947;50.842;6.084;2022-11-06T10:10:55;13.04;66.07
66144;SHT31;52947;50.842;6.084;2022-11-06T10:13:39;13.59;65.33
66144;SHT31;52947;50.842;6.084;2022-11-06T10:16:16;13.42;65.40
66144;SHT31;52947;50.842;6.084;2022-11-06T10:18:54;13.35;66.01
66144;SHT31;52947;50.842;6.084;2022-11-06T10:21:23;13.33;66.10
66144;SHT31;52947;50.842;6.084;2022-11-06T10:23:54;13.25;65.58
66144;SHT31;52947;50.842;6.084;2022-11-06T10:26:31;13.13;66.46
66144;SHT31;52947;50.842;6.084;2022-11-06T10:29:18;12.99;66.01
66144;SHT31;52947;50.842;6.084;2022-11-06T10:31:55;12.92;66.33
66144;SHT31;52947;50.842;6.084;2022-11-06T10:34:29;12.84;66.99
66144;SHT31;52947;50.842;6.084;2022-11-06T10:37:02;12.89;67.33
66144;SHT31;52947;50.842;6.084;2022-11-06T10:39:35;12.92;66.77
66144;SHT31;52947;50.842;6.084;2022-11-06T10:42:08;12.84;66.88
66144;SHT31;52947;50.842;6.084;2022-11-06T10:44:41;13.02;66.83
66144;SHT31;52947;50.842;6.084;2022-11-06T10:47:17;13.27;65.59
66144;SHT31;52947;50.842;6.084;2022-11-06T10:49:47;13.62;64.74
66144;SHT31;52947;50.842;6.084;2022-11-06T10:52:26;13.86;64.40
66144;SHT31;52947;50.842;6.084;2022-11-06T10:55:23;14.92;62.25
66144;SHT31;52947;50.842;6.084;2022-11-06T10:57:56;14.17;63.30
66144;SHT31;52947;50.842;6.084;2022-11-06T11:00:26;14.32;63.25
66144;SHT31;52947;50.842;6.084;2022-11-06T11:02:55;14.31;63.48
66144;SHT31;52947;50.842;6.084;2022-11-06T11:05:26;14.31;63.38
66144;SHT31;52947;50.842;6.084;2022-11-06T11:07:58;14.22;62.80
66144;SHT31;52947;50.842;6.084;2022-11-06T11:10:31;15.02;61.20
66144;SHT31;52947;50.842;6.084;2022-11-06T11:13:01;15.64;59.73
66144;SHT31;52947;50.842;6.084;2022-11-06T11:15:39;15.13;60.25
66144;SHT31;52947;50.842;6.084;2022-11-06T11:18:15;15.67;58.63
66144;SHT31;52947;50.842;6.084;2022-11-06T11:20:45;16.22;58.16
66144;SHT31;52947;50.842;6.084;2022-11-06T11:23:14;16.55;56.18
66144;SHT31;52947;50.842;6.084;2022-11-06T11:25:45;15.82;58.31
66144;SHT31;52947;50.842;6.084;2022-11-06T11:28:28;14.80;59.66
66144;SHT31;52947;50.842;6.084;2022-11-06T11:31:03;13.84;61.53
66144;SHT31;52947;50.842;6.084;2022-11-06T11:33:34;13.67;62.51
66144;SHT31;52947;50.842;6.084;2022-11-06T11:36:03;13.46;62.93
66144;SHT31;52947;50.842;6.084;2022-11-06T11:38:34;13.59;63.17
66144;SHT31;52947;50.842;6.084;2022-11-06T11:41:09;13.45;62.82
66144;SHT31;52947;50.842;6.084;2022-11-06T11:43:39;13.56;62.74
66144;SHT31;52947;50.842;6.084;2022-11-06T11:46:25;13.59;62.03
66144;SHT31;52947;50.842;6.084;2022-11-06T11:48:54;13.69;61.70
66144;SHT31;52947;50.842;6.084;2022-11-06T11:51:28;13.66;61.90
66144;SHT31;52947;50.842;6.084;2022-11-06T11:53:59;13.62;61.93
66144;SHT31;52947;50.842;6.084;2022-11-06T11:56:30;13.63;62.49
66144;SHT31;52947;50.842;6.084;2022-11-06T11:59:20;13.73;61.97
66144;SHT31;52947;50.842;6.084;2022-11-06T12:01:48;13.64;62.18
66144;SHT31;52947;50.842;6.084;2022-11-06T12:04:26;13.38;62.48
66144;SHT31;52947;50.842;6.084;2022-11-06T12:06:57;13.26;62.58
66144;SHT31;52947;50.842;6.084;2022-11-06T12:09:27;13.25;61.49
66144;SHT31;52947;50.842;6.084;2022-11-06T12:11:58;13.20;62.24
66144;SHT31;52947;50.842;6.084;2022-11-06T12:14:29;13.22;61.75
66144;SHT31;52947;50.842;6.084;2022-11-06T12:17:02;13.25;61.58
66144;SHT31;52947;50.842;6.084;2022-11-06T12:19:34;13.29;61.85
66144;SHT31;52947;50.842;6.084;2022-11-06T12:22:06;13.04;60.39
66144;SHT31;52947;50.842;6.084;2022-11-06T12:24:41;13.04;59.88
66144;SHT31;52947;50.842;6.084;2022-11-06T12:27:14;12.94;60.17
66144;SHT31;52947;50.842;6.084;2022-11-06T12:29:46;12.85;60.80
66144;SHT31;52947;50.842;6.084;2022-11-06T12:32:35;12.80;61.33
66144;SHT31;52947;50.842;6.084;2022-11-06T12:35:12;12.67;61.63
66144;SHT31;52947;50.842;6.084;2022-11-06T12:37:47;12.44;61.36
66144;SHT31;52947;50.842;6.084;2022-11-06T12:40:20;12.36;61.46
66144;SHT31;52947;50.842;6.084;2022-11-06T12:43:05;12.34;61.88
66144;SHT31;52947;50.842;6.084;2022-11-06T12:45:46;12.36;62.05
66144;SHT31;52947;50.842;6.084;2022-11-06T12:48:26;12.34;61.83
66144;SHT31;52947;50.842;6.084;2022-11-06T12:51:02;12.31;61.97
66144;SHT31;52947;50.842;6.084;2022-11-06T12:53:43;12.29;62.33
66144;SHT31;52947;50.842;6.084;2022-11-06T12:56:20;12.31;62.25
66144;SHT31;52947;50.842;6.084;2022-11-06T12:58:58;12.36;62.27
66144;SHT31;52947;50.842;6.084;2022-11-06T13:01:44;12.36;62.91
66144;SHT31;52947;50.842;6.084;2022-11-06T13:04:33;12.43;61.94
66144;SHT31;52947;50.842;6.084;2022-11-06T13:07:33;12.43;61.79
66144;SHT31;52947;50.842;6.084;2022-11-06T13:10:15;12.40;61.84
66144;SHT31;52947;50.842;6.084;2022-11-06T13:12:55;12.41;62.23
66144;SHT31;52947;50.842;6.084;2022-11-06T13:15:31;12.41;62.83
66144;SHT31;52947;50.842;6.084;2022-11-06T13:18:08;12.43;62.43
66144;SHT31;52947;50.842;6.084;2022-11-06T13:20:46;12.34;62.77
66144;SHT31;52947;50.842;6.084;2022-11-06T13:23:20;12.30;62.10
66144;SHT31;52947;50.842;6.084;2022-11-06T13:25:55;12.19;62.46
66144;SHT31;52947;50.842;6.084;2022-11-06T13:28:28;12.13;62.88
66144;SHT31;52947;50.842;6.084;2022-11-06T13:31:02;12.17;63.23
66144;SHT31;52947;50.842;6.084;2022-11-06T13:33:35;12.17;63.07
66144;SHT31;52947;50.842;6.084;2022-11-06T13:36:04;12.12;63.04
66144;SHT31;52947;50.842;6.084;2022-11-06T13:38:36;12.09;63.58
66144;SHT31;52947;50.842;6.084;2022-11-06T13:41:09;12.09;63.33
66144;SHT31;52947;50.842;6.084;2022-11-06T13:43:42;12.04;62.94
66144;SHT31;52947;50.842;6.084;2022-11-06T13:46:23;11.99;63.05
66144;SHT31;52947;50.842;6.084;2022-11-06T13:49:02;11.87;64.26
66144;SHT31;52947;50.842;6.084;2022-11-06T13:51:39;11.73;65.07
66144;SHT31;52947;50.842;6.084;2022-11-06T13:54:16;11.71;65.72
66144;SHT31;52947;50.842;6.084;2022-11-06T14:00:00;11.62;64.65
66144;SHT31;52947;50.842;6.084;2022-11-06T14:05:50;11.62;65.24
66144;SHT31;52947;50.842;6.084;2022-11-06T14:08:24;11.52;65.76
66144;SHT31;52947;50.842;6.084;2022-11-06T14:10:56;11.43;67.18
66144;SHT31;52947;50.842;6.084;2022-11-06T14:13:28;11.27;68.16
66144;SHT31;52947;50.842;6.084;2022-11-06T14:16:06;11.22;67.87
66144;SHT31;52947;50.842;6.084;2022-11-06T14:18:35;11.14;68.61
66144;SHT31;52947;50.842;6.084;2022-11-06T14:21:26;11.07;69.05
66144;SHT31;52947;50.842;6.084;2022-11-06T14:24:04;11.01;69.80
66144;SHT31;52947;50.842;6.084;2022-11-06T14:26:38;10.96;70.48
66144;SHT31;52947;50.842;6.084;2022-11-06T14:38:41;10.29;72.40
66144;SHT31;52947;50.842;6.084;2022-11-06T14:44:25;10.11;73.17
66144;SHT31;52947;50.842;6.084;2022-11-06T14:46:57;10.02;74.30
66144;SHT31;52947;50.842;6.084;2022-11-06T14:49:32;9.98;73.41
66144;SHT31;52947;50.842;6.084;2022-11-06T14:52:04;9.95;73.61
66144;SHT31;52947;50.842;6.084;2022-11-06T14:54:36;9.82;73.99
66144;SHT31;52947;50.842;6.084;2022-11-06T14:57:07;9.75;74.06
66144;SHT31;52947;50.842;6.084;2022-11-06T14:59:37;9.68;74.66
66144;SHT31;52947;50.842;6.084;2022-11-06T15:02:16;9.65;75.23
66144;SHT31;52947;50.842;6.084;2022-11-06T15:04:50;9.67;75.59
66144;SHT31;52947;50.842;6.084;2022-11-06T15:07:31;9.54;76.02
66144;SHT31;52947;50.842;6.084;2022-11-06T15:10:53;9.51;76.66
66144;SHT31;52947;50.842;6.084;2022-11-06T15:13:28;9.41;75.89
66144;SHT31;52947;50.842;6.084;2022-11-06T15:16:09;9.33;77.20
66144;SHT31;52947;50.842;6.084;2022-11-06T15:18:43;9.30;76.78
66144;SHT31;52947;50.842;6.084;2022-11-06T15:21:20;9.16;77.77
66144;SHT31;52947;50.842;6.084;2022-11-06T15:23:54;9.03;79.59
66144;SHT31;52947;50.842;6.084;2022-11-06T15:26:27;8.99;79.45
66144;SHT31;52947;50.842;6.084;2022-11-06T15:29:05;8.92;79.40
66144;SHT31;52947;50.842;6.084;2022-11-06T15:31:38;8.85;79.55
66144;SHT31;52947;50.842;6.084;2022-11-06T15:34:12;8.86;79.24
66144;SHT31;52947;50.842;6.084;2022-11-06T15:36:42;8.86;78.79
66144;SHT31;52947;50.842;6.084;2022-11-06T15:39:31;8.85;77.84
66144;SHT31;52947;50.842;6.084;2022-11-06T15:42:01;8.82;78.21
66144;SHT31;52947;50.842;6.084;2022-11-06T15:44:29;8.92;76.64
66144;SHT31;52947;50.842;6.084;2022-11-06T15:46:58;8.95;76.19
66144;SHT31;52947;50.842;6.084;2022-11-06T15:49:25;8.95;76.35
66144;SHT31;52947;50.842;6.084;2022-11-06T15:51:54;8.95;76.22
66144;SHT31;52947;50.842;6.084;2022-11-06T15:54:30;9.00;75.95
66144;SHT31;52947;50.842;6.084;2022-11-06T15:56:59;9.03;75.66
66144;SHT31;52947;50.842;6.084;2022-11-06T15:59:29;8.97;75.38
66144;SHT31;52947;50.842;6.084;2022-11-06T16:01:56;9.00;75.69
66144;SHT31;52947;50.842;6.084;2022-11-06T16:04:25;8.99;75.42
66144;SHT31;52947;50.842;6.084;2022-11-06T16:07:02;9.05;74.06
66144;SHT31;52947;50.842;6.084;2022-11-06T16:09:31;9.09;73.70
66144;SHT31;52947;50.842;6.084;2022-11-06T16:11:59;9.09;72.98
66144;SHT31;52947;50.842;6.084;2022-11-06T16:14:29;9.10;72.95
66144;SHT31;52947;50.842;6.084;2022-11-06T16:17:07;9.07;73.29
66144;SHT31;52947;50.842;6.084;2022-11-06T16:19:38;9.10;72.87
66144;SHT31;52947;50.842;6.084;2022-11-06T16:22:08;9.13;72.97
66144;SHT31;52947;50.842;6.084;2022-11-06T16:24:41;9.26;71.74
66144;SHT31;52947;50.842;6.084;2022-11-06T16:27:10;9.30;71.35
66144;SHT31;52947;50.842;6.084;2022-11-06T16:29:44;9.30;71.11
66144;SHT31;52947;50.842;6.084;2022-11-06T16:32:15;9.20;72.40